createdAt,value
2022-09-07T00:01:37.933Z,16.40
2022-09-07T00:04:09.793Z,16.40
2022-09-07T00:06:41.033Z,16.50
2022-09-07T00:09:11.995Z,16.50
2022-09-07T00:11:43.052Z,16.40
2022-09-07T00:14:16.593Z,16.40
2022-09-07T00:16:47.766Z,16.40
2022-09-07T00:19:45.802Z,16.40
2022-09-07T00:23:02.977Z,16.40
2022-09-07T00:26:20.044Z,16.20
2022-09-07T00:29:09.740Z,16.40
2022-09-07T00:31:43.264Z,16.40
2022-09-07T00:34:14.482Z,16.20
2022-09-07T00:36:45.367Z,16.20
2022-09-07T00:39:16.601Z,16.20
2022-09-07T00:41:47.438Z,16.10
2022-09-07T00:44:33.496Z,16.10
2022-09-07T00:47:07.132Z,16.00
2022-09-07T00:49:38.635Z,16.00
2022-09-07T00:52:11.141Z,16.10
2022-09-07T00:54:44.670Z,16.00
2022-09-07T00:57:15.685Z,16.10
2022-09-07T00:59:47.835Z,16.20
2022-09-07T01:02:21.810Z,16.10
2022-09-07T01:04:55.616Z,16.10
2022-09-07T01:07:26.565Z,16.20
2022-09-07T01:09:58.382Z,16.10
2022-09-07T01:12:29.272Z,16.20
2022-09-07T01:15:00.466Z,16.10
2022-09-07T01:17:40.156Z,16.10
2022-09-07T01:20:24.210Z,16.00
2022-09-07T01:23:08.701Z,16.10
2022-09-07T01:25:45.711Z,15.90
2022-09-07T01:28:22.212Z,16.00
2022-09-07T01:30:57.421Z,16.00
2022-09-07T01:33:43.874Z,15.90
2022-09-07T01:36:20.703Z,15.90
2022-09-07T01:38:53.290Z,16.00
2022-09-07T01:41:28.137Z,16.10
2022-09-07T01:44:05.178Z,16.10
2022-09-07T01:46:38.425Z,15.90
2022-09-07T01:49:11.560Z,15.80
2022-09-07T01:51:46.314Z,15.80
2022-09-07T01:54:19.927Z,15.70
2022-09-07T01:56:52.899Z,15.80
2022-09-07T01:59:31.195Z,15.90
2022-09-07T02:02:06.335Z,15.80
2022-09-07T02:04:38.905Z,16.00
2022-09-07T02:07:12.577Z,16.00
2022-09-07T02:09:45.752Z,15.80
2022-09-07T02:12:19.586Z,15.80
2022-09-07T02:14:55.320Z,15.60
2022-09-07T02:17:29.789Z,15.80
2022-09-07T02:20:04.877Z,15.70
2022-09-07T02:22:38.987Z,15.60
2022-09-07T02:25:10.571Z,15.60
2022-09-07T02:27:44.238Z,15.70
2022-09-07T02:30:18.264Z,15.70
2022-09-07T02:32:49.578Z,15.50
2022-09-07T02:35:20.649Z,15.60
2022-09-07T02:37:51.993Z,15.70
2022-09-07T02:40:22.971Z,15.70
2022-09-07T02:42:54.878Z,15.60
2022-09-07T02:45:28.657Z,15.40
2022-09-07T02:48:07.494Z,15.50
2022-09-07T02:50:55.688Z,15.30
2022-09-07T02:53:44.142Z,15.50
2022-09-07T02:56:20.876Z,15.70
2022-09-07T02:58:54.391Z,15.70
2022-09-07T03:01:35.020Z,15.70
2022-09-07T03:04:10.668Z,15.80
2022-09-07T03:06:43.122Z,15.80
2022-09-07T03:09:15.677Z,15.80
2022-09-07T03:11:46.913Z,15.80
2022-09-07T03:14:18.918Z,15.80
2022-09-07T03:16:53.409Z,15.80
2022-09-07T03:19:24.688Z,15.80
2022-09-07T03:21:55.588Z,15.60
2022-09-07T03:24:26.855Z,15.50
2022-09-07T03:26:57.689Z,15.20
2022-09-07T03:29:28.930Z,15.00
2022-09-07T03:32:02.427Z,14.90
2022-09-07T03:34:33.784Z,14.60
2022-09-07T03:37:04.598Z,14.90
2022-09-07T03:39:36.644Z,14.90
2022-09-07T03:42:07.603Z,14.70
2022-09-07T03:44:39.175Z,14.60
2022-09-07T03:47:12.726Z,14.70
2022-09-07T03:49:43.943Z,14.90
2022-09-07T03:52:14.994Z,14.80
2022-09-07T03:54:46.546Z,14.60
2022-09-07T03:57:17.431Z,14.60
2022-09-07T03:59:50.022Z,14.80
2022-09-07T04:02:23.654Z,15.00
2022-09-07T04:04:54.860Z,15.20
2022-09-07T04:07:25.790Z,15.30
2022-09-07T04:09:57.224Z,15.40
2022-09-07T04:12:28.321Z,15.40
2022-09-07T04:14:59.381Z,15.40
2022-09-07T04:17:32.974Z,15.40
2022-09-07T04:20:04.781Z,15.40
2022-09-07T04:22:35.826Z,15.50
2022-09-07T04:25:07.212Z,15.40
2022-09-07T04:27:38.223Z,15.30
2022-09-07T04:30:10.012Z,15.40
2022-09-07T04:32:43.576Z,15.30
2022-09-07T04:35:14.729Z,15.40
2022-09-07T04:37:45.454Z,15.40
2022-09-07T04:40:16.577Z,15.40
2022-09-07T04:42:47.481Z,15.30
2022-09-07T04:45:18.780Z,15.20
2022-09-07T04:47:52.815Z,15.20
2022-09-07T04:50:23.990Z,15.30
2022-09-07T04:52:54.845Z,15.30
2022-09-07T04:55:25.958Z,15.30
2022-09-07T04:57:56.794Z,15.30
2022-09-07T05:00:27.936Z,15.20
2022-09-07T05:03:01.393Z,15.00
2022-09-07T05:05:34.698Z,15.10
2022-09-07T05:08:05.896Z,15.20
2022-09-07T05:10:37.189Z,15.20
2022-09-07T05:13:07.994Z,15.20
2022-09-07T05:15:39.319Z,15.30
2022-09-07T05:18:13.135Z,15.30
2022-09-07T05:20:44.969Z,15.30
2022-09-07T05:23:15.776Z,15.30
2022-09-07T05:25:48.119Z,15.10
2022-09-07T05:28:19.641Z,15.20
2022-09-07T05:36:39.692Z,15.30
2022-09-07T05:39:11.013Z,15.10
2022-09-07T05:41:42.316Z,15.10
2022-09-07T05:47:04.485Z,14.90
2022-09-07T05:49:37.917Z,15.00
2022-09-07T05:52:09.310Z,15.10
2022-09-07T05:54:40.373Z,15.20
2022-09-07T05:57:13.888Z,15.30
2022-09-07T05:59:44.840Z,15.30
2022-09-07T06:02:17.602Z,15.30
2022-09-07T06:04:51.203Z,15.30
2022-09-07T06:07:23.269Z,15.40
2022-09-07T06:12:49.214Z,15.40
2022-09-07T06:15:20.552Z,15.50
2022-09-07T06:17:51.817Z,15.50
2022-09-07T06:20:25.484Z,15.50
2022-09-07T06:22:56.676Z,15.60
2022-09-07T06:25:27.542Z,15.60
2022-09-07T06:27:59.787Z,15.70
2022-09-07T06:30:30.743Z,15.70
2022-09-07T06:33:01.854Z,15.70
2022-09-07T06:35:35.419Z,15.80
2022-09-07T06:38:06.500Z,15.90
2022-09-07T06:40:37.633Z,15.90
2022-09-07T06:43:09.685Z,15.90
2022-09-07T06:45:40.533Z,16.00
2022-09-07T06:48:11.790Z,16.00
2022-09-07T06:50:45.323Z,16.10
2022-09-07T06:56:08.648Z,16.20
2022-09-07T06:58:42.424Z,16.30
2022-09-07T07:01:15.231Z,16.30
2022-09-07T07:03:47.040Z,16.40
2022-09-07T07:06:20.609Z,16.40
2022-09-07T07:08:55.768Z,16.50
2022-09-07T07:11:27.679Z,16.50
2022-09-07T07:14:00.112Z,16.60
2022-09-07T07:16:31.397Z,16.70
2022-09-07T07:19:02.841Z,16.70
2022-09-07T07:21:55.316Z,16.70
2022-09-07T07:24:27.537Z,16.80
2022-09-07T07:26:58.410Z,16.90
2022-09-07T07:29:29.686Z,16.90
2022-09-07T07:32:00.673Z,17.00
2022-09-07T07:34:31.936Z,17.10
2022-09-07T07:37:05.426Z,17.10
2022-09-07T07:42:27.397Z,17.20
2022-09-07T07:47:51.801Z,17.30
2022-09-07T07:50:30.970Z,17.40
2022-09-07T07:55:57.021Z,17.50
2022-09-07T07:58:27.891Z,17.50
2022-09-07T08:01:03.500Z,17.60
2022-09-07T08:03:37.149Z,17.60
2022-09-07T08:06:09.130Z,17.70
2022-09-07T08:08:43.187Z,17.70
2022-09-07T08:11:17.051Z,17.70
2022-09-07T08:13:49.678Z,17.80
2022-09-07T08:16:21.260Z,17.80
2022-09-07T08:18:53.053Z,17.80
2022-09-07T08:21:24.198Z,17.90
2022-09-07T08:24:00.271Z,17.90
2022-09-07T08:26:31.316Z,17.90
2022-09-07T08:29:02.006Z,18.00
2022-09-07T08:31:34.270Z,18.00
2022-09-07T08:34:05.071Z,18.00
2022-09-07T08:36:36.514Z,18.00
2022-09-07T08:39:09.898Z,18.00
2022-09-07T08:41:55.772Z,18.00
2022-09-07T08:44:28.778Z,18.00
2022-09-07T08:47:01.511Z,18.10
2022-09-07T08:49:36.434Z,18.00
2022-09-07T08:52:08.386Z,18.00
2022-09-07T08:54:42.010Z,18.00
2022-09-07T08:57:20.840Z,18.00
2022-09-07T08:59:54.530Z,18.00
2022-09-07T09:02:27.819Z,18.00
2022-09-07T09:07:52.788Z,18.10
2022-09-07T09:10:33.575Z,18.00
2022-09-07T09:13:08.078Z,18.00
2022-09-07T09:15:52.046Z,18.00
2022-09-07T09:18:38.069Z,18.00
2022-09-07T09:21:12.746Z,18.00
2022-09-07T09:23:44.761Z,18.00
2022-09-07T09:26:20.420Z,18.00
2022-09-07T09:28:51.455Z,18.00
2022-09-07T09:31:23.456Z,18.00
2022-09-07T09:34:11.415Z,18.00
2022-09-07T09:36:46.397Z,18.00
2022-09-07T09:39:30.696Z,18.10
2022-09-07T09:42:15.869Z,18.00
2022-09-07T09:44:47.406Z,18.10
2022-09-07T09:47:30.453Z,18.00
2022-09-07T09:50:04.232Z,18.10
2022-09-07T09:52:47.729Z,18.10
2022-09-07T09:55:35.484Z,18.00
2022-09-07T10:03:56.330Z,18.10
2022-09-07T10:06:28.952Z,18.10
2022-09-07T10:09:00.539Z,18.10
2022-09-07T10:14:46.310Z,18.10
2022-09-07T10:17:21.258Z,18.20
2022-09-07T10:19:52.590Z,18.20
2022-09-07T10:22:25.562Z,18.20
2022-09-07T10:24:56.332Z,18.20
2022-09-07T10:27:35.964Z,18.30
2022-09-07T10:30:12.665Z,18.30
2022-09-07T10:32:50.101Z,18.40
2022-09-07T10:35:24.013Z,18.40
2022-09-07T10:38:11.641Z,18.50
2022-09-07T10:40:44.313Z,18.50
2022-09-07T10:43:29.754Z,18.60
2022-09-07T10:49:17.228Z,18.70
2022-09-07T10:51:58.764Z,18.80
2022-09-07T10:54:36.859Z,18.80
2022-09-07T10:57:12.037Z,18.90
2022-09-07T11:05:54.905Z,19.10
2022-09-07T11:09:15.087Z,19.20
2022-09-07T11:14:21.929Z,19.30
2022-09-07T11:16:55.208Z,19.50
2022-09-07T11:19:35.649Z,19.50
2022-09-07T11:22:15.372Z,19.60
2022-09-07T11:25:29.083Z,19.60
2022-09-07T11:27:41.719Z,19.60
2022-09-07T11:30:18.919Z,19.70
2022-09-07T11:32:54.483Z,19.80
2022-09-07T11:35:32.954Z,19.80
2022-09-07T11:38:06.823Z,19.90
2022-09-07T11:40:39.620Z,19.90
2022-09-07T11:43:16.534Z,20.00
2022-09-07T11:45:49.967Z,20.10
2022-09-07T11:48:22.503Z,20.10
2022-09-07T11:50:57.647Z,20.20
2022-09-07T11:53:31.233Z,20.20
2022-09-07T11:56:03.911Z,20.30
2022-09-07T11:58:48.125Z,20.40
2022-09-07T12:01:24.175Z,20.40
2022-09-07T12:04:15.348Z,20.50
2022-09-07T12:06:53.989Z,20.50
2022-09-07T12:09:33.360Z,20.50
2022-09-07T12:12:19.291Z,20.60
2022-09-07T12:14:58.350Z,20.60
2022-09-07T12:17:39.991Z,20.70
2022-09-07T12:20:15.447Z,20.70
2022-09-07T12:23:04.774Z,20.80
2022-09-07T12:25:36.942Z,20.80
2022-09-07T12:28:07.717Z,20.90
2022-09-07T12:30:47.602Z,20.90
2022-09-07T12:33:25.829Z,21.00
2022-09-07T12:35:59.204Z,21.00
2022-09-07T12:38:44.887Z,21.10
2022-09-07T12:41:27.351Z,21.10
2022-09-07T12:44:18.655Z,21.20
2022-09-07T12:47:10.448Z,21.20
2022-09-07T12:50:07.011Z,21.20
2022-09-07T12:52:48.713Z,21.20
2022-09-07T12:56:15.719Z,21.10
2022-09-07T12:58:41.137Z,21.20
2022-09-07T13:01:18.540Z,21.20
2022-09-07T13:03:59.510Z,21.30
2022-09-07T13:09:36.731Z,21.30
2022-09-07T13:15:31.355Z,21.40
2022-09-07T13:18:05.304Z,21.50
2022-09-07T13:20:40.624Z,21.40
2022-09-07T13:23:22.103Z,21.40
2022-09-07T13:25:57.377Z,21.40
2022-09-07T13:28:34.328Z,21.50
2022-09-07T13:31:10.156Z,21.60
2022-09-07T13:33:53.617Z,21.60
2022-09-07T13:36:48.478Z,21.60
2022-09-07T13:39:22.792Z,21.60
2022-09-07T13:41:56.176Z,21.60
2022-09-07T13:44:28.678Z,21.60
2022-09-07T13:47:03.131Z,21.60
2022-09-07T13:49:56.201Z,21.60
2022-09-07T13:52:30.909Z,21.50
2022-09-07T13:55:06.280Z,21.50
2022-09-07T13:57:45.657Z,21.50
2022-09-07T14:00:17.006Z,21.50
2022-09-07T14:02:56.461Z,21.60
2022-09-07T14:05:30.650Z,21.60
2022-09-07T14:08:01.828Z,21.60
2022-09-07T14:10:32.579Z,21.60
2022-09-07T14:13:09.460Z,21.60
2022-09-07T14:15:42.212Z,21.60
2022-09-07T14:18:15.102Z,21.60
2022-09-07T14:20:50.815Z,21.60
2022-09-07T14:23:28.415Z,21.60
2022-09-07T14:26:17.745Z,21.60
2022-09-07T14:28:50.094Z,21.60
2022-09-07T14:31:22.324Z,21.60
2022-09-07T14:33:54.498Z,21.60
2022-09-07T14:36:47.441Z,21.60
2022-09-07T14:39:19.549Z,21.50
2022-09-07T14:41:51.093Z,21.50
2022-09-07T14:44:32.998Z,21.50
2022-09-07T14:47:06.153Z,21.50
2022-09-07T14:49:37.602Z,21.50
2022-09-07T14:52:18.780Z,21.40
2022-09-07T14:54:54.015Z,21.30
2022-09-07T14:57:32.904Z,21.30
2022-09-07T15:00:18.741Z,21.30
2022-09-07T15:02:49.523Z,21.20
2022-09-07T15:05:30.783Z,21.20
2022-09-07T15:08:04.587Z,21.20
2022-09-07T15:10:38.347Z,21.20
2022-09-07T15:13:24.608Z,21.10
2022-09-07T15:16:00.250Z,21.20
2022-09-07T15:18:51.865Z,21.10
2022-09-07T15:21:23.429Z,21.10
2022-09-07T15:23:58.691Z,21.10
2022-09-07T15:29:24.208Z,21.00
2022-09-07T15:32:03.928Z,21.00
2022-09-07T15:34:35.501Z,20.90
2022-09-07T15:38:01.040Z,20.90
2022-09-07T15:40:01.613Z,20.90
2022-09-07T15:45:23.690Z,20.80
2022-09-07T15:47:56.512Z,20.80
2022-09-07T15:50:27.489Z,20.80
2022-09-07T15:53:00.875Z,20.70
2022-09-07T15:55:37.061Z,20.70
2022-09-07T15:58:11.875Z,20.70
2022-09-07T16:00:43.120Z,20.60
2022-09-07T16:03:14.221Z,20.60
2022-09-07T16:05:46.450Z,20.60
2022-09-07T16:08:25.334Z,20.60
2022-09-07T16:11:10.086Z,20.60
2022-09-07T16:13:46.915Z,20.50
2022-09-07T16:16:19.124Z,20.50
2022-09-07T16:18:50.315Z,20.50
2022-09-07T16:21:26.072Z,20.40
2022-09-07T16:23:57.459Z,20.30
2022-09-07T16:26:30.859Z,20.30
2022-09-07T16:29:01.924Z,20.30
2022-09-07T16:31:33.640Z,20.30
2022-09-07T16:34:05.732Z,20.30
2022-09-07T16:36:37.128Z,20.30
2022-09-07T16:39:08.181Z,20.30
2022-09-07T16:41:42.613Z,20.30
2022-09-07T16:44:13.937Z,20.30
2022-09-07T16:46:44.635Z,20.20
2022-09-07T16:49:16.704Z,20.20
2022-09-07T16:51:47.497Z,20.10
2022-09-07T16:54:18.739Z,20.10
2022-09-07T16:56:52.725Z,20.10
2022-09-07T16:59:26.899Z,20.10
2022-09-07T17:01:57.674Z,20.00
2022-09-07T17:04:29.212Z,20.00
2022-09-07T17:06:59.970Z,20.00
2022-09-07T17:09:31.119Z,20.00
2022-09-07T17:12:04.813Z,20.00
2022-09-07T17:14:36.247Z,19.90
2022-09-07T17:17:07.133Z,19.90
2022-09-07T17:19:38.312Z,19.90
2022-09-07T17:22:09.258Z,19.90
2022-09-07T17:24:40.377Z,19.80
2022-09-07T17:27:13.729Z,19.80
2022-09-07T17:29:44.974Z,19.80
2022-09-07T17:32:24.412Z,19.80
2022-09-07T17:34:56.429Z,19.80
2022-09-07T17:37:27.095Z,19.80
2022-09-07T17:40:05.430Z,19.80
2022-09-07T17:45:32.376Z,19.70
2022-09-07T17:48:03.228Z,19.70
2022-09-07T17:50:34.421Z,19.60
2022-09-07T17:53:05.326Z,19.60
2022-09-07T17:55:36.453Z,19.60
2022-09-07T17:58:09.998Z,19.60
2022-09-07T18:00:41.140Z,19.50
2022-09-07T18:03:12.955Z,19.50
2022-09-07T18:05:44.216Z,19.50
2022-09-07T18:08:15.583Z,19.50
2022-09-07T18:13:41.240Z,19.40
2022-09-07T18:16:14.131Z,19.40
2022-09-07T18:19:07.494Z,19.40
2022-09-07T18:21:41.237Z,19.30
2022-09-07T18:24:16.800Z,19.30
2022-09-07T18:26:52.246Z,19.30
2022-09-07T18:29:29.371Z,19.30
2022-09-07T18:32:03.295Z,19.30
2022-09-07T18:34:34.524Z,19.30
2022-09-07T18:37:06.227Z,19.20
2022-09-07T18:39:37.274Z,19.20
2022-09-07T18:42:09.184Z,19.20
2022-09-07T18:47:35.101Z,19.20
2022-09-07T18:50:06.350Z,19.20
2022-09-07T18:52:53.626Z,19.20
2022-09-07T18:55:24.804Z,19.10
2022-09-07T18:57:56.127Z,19.10
2022-09-07T19:00:30.203Z,19.10
2022-09-07T19:03:01.597Z,19.10
2022-09-07T19:08:24.177Z,19.00
2022-09-07T19:10:55.438Z,19.00
2022-09-07T19:13:27.421Z,19.00
2022-09-07T19:16:05.525Z,19.00
2022-09-07T19:18:37.425Z,19.00
2022-09-07T19:21:12.316Z,18.90
2022-09-07T19:23:46.631Z,18.90
2022-09-07T19:26:18.060Z,18.90
2022-09-07T19:28:52.671Z,18.90
2022-09-07T19:31:26.448Z,18.80
2022-09-07T19:33:58.393Z,18.80
2022-09-07T19:36:29.762Z,18.80
2022-09-07T19:39:01.021Z,18.80
2022-09-07T19:41:32.012Z,18.80
2022-09-07T19:44:03.293Z,18.80
2022-09-07T19:46:36.752Z,18.80
2022-09-07T19:49:12.184Z,18.80
2022-09-07T19:51:43.383Z,18.70
2022-09-07T19:54:15.395Z,18.70
2022-09-07T19:56:46.379Z,18.70
2022-09-07T19:59:18.105Z,18.70
2022-09-07T20:01:53.637Z,18.70
2022-09-07T20:04:25.262Z,18.60
2022-09-07T20:06:56.631Z,18.60
2022-09-07T20:09:27.963Z,18.60
2022-09-07T20:11:58.710Z,18.60
2022-09-07T20:14:29.917Z,18.60
2022-09-07T20:17:04.174Z,18.60
2022-09-07T20:19:35.416Z,18.60
2022-09-07T20:22:06.290Z,18.50
2022-09-07T20:24:37.997Z,18.50
2022-09-07T20:27:08.868Z,18.50
2022-09-07T20:29:41.021Z,18.50
2022-09-07T20:32:14.501Z,18.50
2022-09-07T20:34:46.383Z,18.50
2022-09-07T20:37:17.471Z,18.50
2022-09-07T20:39:49.125Z,18.50
2022-09-07T20:42:19.962Z,18.40
2022-09-07T20:44:51.061Z,18.40
2022-09-07T20:47:24.638Z,18.40
2022-09-07T20:49:55.900Z,18.40
2022-09-07T20:52:26.944Z,18.40
2022-09-07T20:54:58.289Z,18.40
2022-09-07T20:57:29.375Z,18.40
2022-09-07T21:00:00.649Z,18.30
2022-09-07T21:02:34.327Z,18.30
2022-09-07T21:05:05.393Z,18.30
2022-09-07T21:07:36.138Z,18.30
2022-09-07T21:10:07.812Z,18.30
2022-09-07T21:12:38.675Z,18.30
2022-09-07T21:15:10.502Z,18.20
2022-09-07T21:17:43.881Z,18.20
2022-09-07T21:20:15.972Z,18.20
2022-09-07T21:22:46.708Z,18.20
2022-09-07T21:25:17.944Z,18.20
2022-09-07T21:27:48.909Z,18.20
2022-09-07T21:30:19.997Z,18.20
2022-09-07T21:32:56.368Z,18.10
2022-09-07T21:35:29.880Z,18.10
2022-09-07T21:38:00.697Z,18.10
2022-09-07T21:40:32.045Z,18.10
2022-09-07T21:43:02.921Z,18.10
2022-09-07T21:45:34.344Z,18.10
2022-09-07T21:48:07.841Z,18.00
2022-09-07T21:50:39.184Z,18.10
2022-09-07T21:53:09.963Z,18.00
2022-09-07T21:55:41.040Z,18.10
2022-09-07T21:58:11.744Z,18.00
2022-09-07T22:00:42.743Z,18.00
2022-09-07T22:03:16.165Z,18.00
2022-09-07T22:05:47.264Z,18.00
2022-09-07T22:08:18.128Z,18.00
2022-09-07T22:10:49.505Z,18.00
2022-09-07T22:13:20.539Z,18.00
2022-09-07T22:15:51.506Z,18.00
2022-09-07T22:18:24.879Z,17.90
2022-09-07T22:21:03.384Z,17.90
2022-09-07T22:23:34.712Z,17.90
2022-09-07T22:26:06.346Z,17.90
2022-09-07T22:28:37.583Z,17.90
2022-09-07T22:31:11.983Z,17.90
2022-09-07T22:33:45.865Z,17.90
2022-09-07T22:36:19.817Z,17.90
2022-09-07T22:38:51.821Z,17.90
2022-09-07T22:41:23.536Z,17.80
2022-09-07T22:43:54.716Z,17.80
2022-09-07T22:46:26.574Z,17.80
2022-09-07T22:49:01.254Z,17.80
2022-09-07T22:51:32.302Z,17.80
2022-09-07T22:54:03.050Z,17.80
2022-09-07T22:56:34.994Z,17.80
2022-09-07T22:59:07.712Z,17.70
2022-09-07T23:01:39.655Z,17.80
2022-09-07T23:04:13.844Z,17.70
2022-09-07T23:06:45.464Z,17.70
2022-09-07T23:09:17.453Z,17.70
2022-09-07T23:11:49.015Z,17.70
2022-09-07T23:14:20.879Z,17.70
2022-09-07T23:16:52.198Z,17.70
2022-09-07T23:19:25.529Z,17.70
2022-09-07T23:21:56.842Z,17.70
2022-09-07T23:24:27.703Z,17.60
2022-09-07T23:26:58.611Z,17.60
2022-09-07T23:29:29.441Z,17.60
2022-09-07T23:32:00.476Z,17.60
2022-09-07T23:34:33.747Z,17.60
2022-09-07T23:37:04.745Z,17.60
2022-09-07T23:39:35.565Z,17.60
2022-09-07T23:42:07.038Z,17.60
2022-09-07T23:44:37.785Z,17.60
2022-09-07T23:47:08.700Z,17.60
2022-09-07T23:49:42.151Z,17.50
2022-09-07T23:52:13.245Z,17.40
2022-09-07T23:54:44.061Z,17.40
2022-09-07T23:57:15.188Z,17.40
2022-09-07T23:59:45.947Z,17.50
